メインページ
METAR-TAF:

METAR-TAF

空港 :

アタテュルク国際空港

イスタンブル-アタテュルク, トルコ

緯度: 40-58N, 経度: 028-49E, 海抜: 48m

現時点の気象観測

当レポートは16分前の09:20(UTC)に作成
北/北西の風 24kt、最大34ktの突風を伴う
気温 3°C
湿度 87%
気圧 1021 hPa
視程: 6000m
高度1100ftの千切れ雲あり
高度3000ftの千切れ雲あり
弱いにわか雨, 雪

METAR: LTBA 190920Z 34024G34KT 6000 -SHRASN BKN011 BKN030 03/01 Q1021 RERA NOSIG RMK RWY17L 35023G33KT RWY05 33023G33KT RWY23 35018G30KT

時間: 12:36 (09:36 UTC)

予報

当レポートは4時間56分前の04:40(UTC)に作成
予報は19日の 06時(UTC)から 20日の 12時(UTC)まで有効
の風 25kt、最大35ktの突風を伴う
視程: 6000m
高度1200ftの千切れ雲あり
高度2500ftの千切れ雲あり
小雨
19日の 06時(UTC)から 19日の 09時(UTC)まで一時的に
視程: 2000m
19日の 14時(UTC)から 19日の 18時(UTC)まで一時的に
視程: 2000m
高度2000ftの雲は散在している, 塔状積雲.
高度2700ftの千切れ雲あり
にわか雪, 雨
19日の 18時(UTC)から 19日の 22時(UTC)まで徐々に
の風 15kt
確率 30%
20日の 01時(UTC)から 20日の 05時(UTC)まで
視程: 2000m
高度2000ftの雲は散在している, 塔状積雲.
高度2800ftの千切れ雲あり
にわか雪, 雨

TAF: LTBA 190440Z 1906/2012 35025G35KT 6000 -RA BKN012 BKN025 TEMPO 1906/1909 2000 RA TEMPO 1914/1918 2000 SHSNRA SCT020TCU BKN027 BECMG 1918/1922 35015KT PROB30 2001/2005 2000 SHSNRA SCT020TCU BKN028

4,000以上の空港の気象観測と天気予報(METAR報とTAF報)

利用可能な観測所は地図上に黄色い丸と赤い丸で示す。

丸の上にカーソルを重ねると観測所名を参照できる。

次にクリックすると気象観測と天気予報を参照できる。

マップの切り替え:黒色「×」印の緑ボタンをクリックして拡大、「-」印の緑ボタンをクリックして縮小、緑色の三角印をクリックして隣りの地図に切り替え


METAR-TAF: